createdAt,value
2018-08-23T00:00:45.935Z,22.50
2018-08-23T00:03:20.600Z,22.27
2018-08-23T00:05:52.298Z,20.37
2018-08-23T00:08:22.744Z,20.50
2018-08-23T00:10:53.206Z,21.93
2018-08-23T00:13:24.071Z,22.53
2018-08-23T00:15:53.622Z,20.77
2018-08-23T00:18:23.144Z,21.67
2018-08-23T00:20:52.601Z,21.33
2018-08-23T00:23:22.172Z,22.13
2018-08-23T00:25:51.466Z,23.00
2018-08-23T00:28:20.903Z,22.27
2018-08-23T00:30:51.059Z,23.93
2018-08-23T00:33:20.386Z,22.97
2018-08-23T00:35:49.690Z,22.53
2018-08-23T00:38:19.140Z,22.77
2018-08-23T00:40:48.878Z,23.53
2018-08-23T00:43:18.367Z,23.20
2018-08-23T00:45:47.578Z,23.77
2018-08-23T00:48:16.788Z,23.43
2018-08-23T00:50:54.706Z,22.97
2018-08-23T00:53:24.215Z,22.57
2018-08-23T00:56:10.683Z,25.60
2018-08-23T00:58:41.710Z,24.00
2018-08-23T01:01:12.878Z,22.63
2018-08-23T01:03:42.918Z,23.43
2018-08-23T01:06:13.003Z,23.27
2018-08-23T01:08:42.287Z,23.20
2018-08-23T01:11:12.031Z,22.70
2018-08-23T01:13:41.894Z,21.20
2018-08-23T01:16:13.498Z,22.67
2018-08-23T01:18:43.311Z,23.20
2018-08-23T01:21:12.878Z,23.37
2018-08-23T01:23:43.543Z,23.53
2018-08-23T01:26:12.948Z,23.07
2018-08-23T01:28:42.434Z,22.90
2018-08-23T01:31:25.342Z,22.03
2018-08-23T01:33:57.360Z,21.20
2018-08-23T01:36:31.881Z,21.80
2018-08-23T01:39:05.408Z,21.67
2018-08-23T01:41:34.921Z,21.73
2018-08-23T01:44:04.459Z,23.00
2018-08-23T01:46:39.243Z,22.73
2018-08-23T01:49:09.712Z,22.53
2018-08-23T01:51:39.041Z,22.73
2018-08-23T01:54:08.596Z,25.93
2018-08-23T01:56:38.306Z,24.50
2018-08-23T01:59:07.855Z,23.80
2018-08-23T02:01:37.139Z,25.20
2018-08-23T02:04:07.071Z,24.67
2018-08-23T02:06:36.944Z,23.27
2018-08-23T02:09:08.203Z,25.30
2018-08-23T02:11:37.970Z,27.20
2018-08-23T02:14:07.500Z,23.53
2018-08-23T02:16:48.247Z,24.43
2018-08-23T02:19:17.572Z,24.73
2018-08-23T02:21:47.091Z,24.20
2018-08-23T02:24:20.774Z,24.90
2018-08-23T02:26:50.190Z,23.57
2018-08-23T02:29:29.414Z,22.23
2018-08-23T02:31:58.816Z,22.13
2018-08-23T02:34:32.449Z,21.70
2018-08-23T02:37:01.779Z,22.27
2018-08-23T02:39:31.215Z,23.10
2018-08-23T02:42:00.932Z,22.23
2018-08-23T02:44:30.215Z,21.73
2018-08-23T02:47:00.393Z,23.40
2018-08-23T02:49:30.183Z,23.77
2018-08-23T02:51:59.827Z,23.73
2018-08-23T02:54:29.270Z,23.63
2018-08-23T02:56:59.826Z,25.30
2018-08-23T02:59:30.170Z,23.37
2018-08-23T03:01:59.442Z,24.57
2018-08-23T03:04:29.627Z,25.40
2018-08-23T03:07:04.959Z,24.27
2018-08-23T03:09:36.583Z,25.60
2018-08-23T03:12:11.498Z,23.70
2018-08-23T03:14:41.604Z,23.87
2018-08-23T03:17:24.478Z,24.07
2018-08-23T03:20:02.613Z,26.30
2018-08-23T03:22:33.216Z,26.80
2018-08-23T03:25:04.331Z,26.73
2018-08-23T03:27:33.824Z,24.63
2018-08-23T03:30:04.410Z,24.70
2018-08-23T03:32:33.648Z,26.23
2018-08-23T03:35:03.178Z,27.60
2018-08-23T03:37:32.416Z,25.33
2018-08-23T03:40:01.734Z,25.60
2018-08-23T03:42:31.222Z,27.33
2018-08-23T03:45:01.754Z,27.70
2018-08-23T03:47:38.102Z,28.30
2018-08-23T03:50:09.168Z,29.07
2018-08-23T03:52:39.383Z,27.57
2018-08-23T03:55:10.775Z,29.43
2018-08-23T03:57:45.321Z,28.47
2018-08-23T04:00:14.789Z,29.77
2018-08-23T04:02:44.262Z,29.53
2018-08-23T04:05:18.806Z,29.87
2018-08-23T04:07:48.207Z,28.30
2018-08-23T04:10:17.711Z,28.47
2018-08-23T04:12:47.195Z,29.43
2018-08-23T04:15:24.159Z,29.30
2018-08-23T04:17:53.644Z,29.23
2018-08-23T04:20:23.780Z,28.70
2018-08-23T04:22:53.695Z,27.90
2018-08-23T04:25:22.967Z,30.77
2018-08-23T04:27:52.644Z,28.60
2018-08-23T04:30:22.163Z,29.10
2018-08-23T04:32:52.134Z,28.83
2018-08-23T04:35:25.008Z,32.10
2018-08-23T04:37:54.517Z,29.37
2018-08-23T04:40:24.337Z,31.10
2018-08-23T04:42:54.290Z,30.53
2018-08-23T04:45:24.970Z,30.63
2018-08-23T04:48:06.143Z,30.10
2018-08-23T04:50:36.137Z,29.63
2018-08-23T04:53:05.375Z,29.80
2018-08-23T04:55:34.594Z,30.27
2018-08-23T04:58:04.784Z,29.37
2018-08-23T05:00:34.442Z,30.13
2018-08-23T05:03:03.990Z,29.83
2018-08-23T05:05:33.696Z,29.10
2018-08-23T05:08:03.176Z,30.60
2018-08-23T05:10:32.635Z,29.97
2018-08-23T05:13:01.952Z,29.33
2018-08-23T05:15:31.444Z,32.57
2018-08-23T05:18:00.967Z,30.60
2018-08-23T05:20:30.554Z,32.13
2018-08-23T05:23:03.494Z,31.43
2018-08-23T05:25:32.957Z,43.73
2018-08-23T05:28:20.694Z,36.53
2018-08-23T05:30:50.723Z,38.73
2018-08-23T05:33:21.515Z,38.30
2018-08-23T05:35:50.890Z,37.00
2018-08-23T05:38:21.102Z,34.33
2018-08-23T05:40:55.459Z,33.73
2018-08-23T05:43:25.891Z,30.97
2018-08-23T05:45:57.309Z,29.70
2018-08-23T05:48:29.656Z,29.53
2018-08-23T05:51:08.406Z,31.07
2018-08-23T05:53:50.739Z,30.30
2018-08-23T05:56:20.599Z,28.47
2018-08-23T05:58:49.999Z,31.30
2018-08-23T06:01:19.488Z,31.93
2018-08-23T06:03:49.182Z,30.80
2018-08-23T06:06:18.678Z,32.83
2018-08-23T06:08:50.336Z,32.57
2018-08-23T06:11:19.788Z,33.63
2018-08-23T06:13:49.290Z,33.93
2018-08-23T06:16:18.554Z,32.83
2018-08-23T06:18:48.085Z,35.77
2018-08-23T06:21:17.547Z,34.60
2018-08-23T06:23:55.120Z,34.73
2018-08-23T06:26:37.522Z,33.03
2018-08-23T06:29:07.226Z,37.50
2018-08-23T06:31:43.774Z,36.83
2018-08-23T06:34:13.141Z,36.77
2018-08-23T06:36:46.685Z,34.23
2018-08-23T06:39:16.074Z,39.20
2018-08-23T06:41:45.609Z,37.03
2018-08-23T06:44:15.074Z,34.00
2018-08-23T06:46:45.299Z,35.40
2018-08-23T06:49:14.519Z,36.63
2018-08-23T06:51:44.047Z,39.53
2018-08-23T06:54:13.498Z,38.17
2018-08-23T06:56:42.987Z,39.33
2018-08-23T06:59:12.694Z,44.60
2018-08-23T07:01:47.832Z,42.83
2018-08-23T07:04:17.226Z,41.70
2018-08-23T07:06:46.834Z,44.93
2018-08-23T07:09:17.659Z,41.07
2018-08-23T07:11:47.026Z,42.40
2018-08-23T07:14:17.475Z,47.33
2018-08-23T07:16:50.567Z,45.33
2018-08-23T07:19:32.338Z,43.70
2018-08-23T07:22:03.300Z,47.13
2018-08-23T07:24:43.213Z,44.33
2018-08-23T07:27:14.209Z,47.67
2018-08-23T07:29:45.639Z,44.70
2018-08-23T07:32:19.214Z,45.10
2018-08-23T07:35:01.239Z,46.53
2018-08-23T07:37:32.376Z,47.53
2018-08-23T07:40:06.811Z,55.80
2018-08-23T07:42:36.903Z,49.53
2018-08-23T07:45:07.454Z,52.00
2018-08-23T07:47:43.211Z,49.50
2018-08-23T07:50:12.650Z,54.13
2018-08-23T07:52:45.299Z,49.37
2018-08-23T07:55:14.701Z,46.80
2018-08-23T07:57:45.083Z,48.90
2018-08-23T08:00:38.102Z,51.67
2018-08-23T08:03:08.486Z,47.93
2018-08-23T08:05:40.759Z,45.27
2018-08-23T08:08:11.599Z,49.40
2018-08-23T08:10:42.972Z,50.63
2018-08-23T08:13:12.582Z,50.77
2018-08-23T08:15:42.146Z,51.90
2018-08-23T08:18:23.581Z,49.27
2018-08-23T08:21:04.018Z,50.27
2018-08-23T08:23:33.909Z,48.57
2018-08-23T08:26:03.275Z,46.97
2018-08-23T08:28:32.943Z,46.67
2018-08-23T08:31:02.946Z,49.47
2018-08-23T08:33:36.819Z,51.10
2018-08-23T08:36:07.038Z,45.97
2018-08-23T08:38:36.974Z,40.30
2018-08-23T08:41:06.345Z,42.10
2018-08-23T08:43:35.708Z,45.53
2018-08-23T08:46:05.036Z,45.47
2018-08-23T08:48:35.421Z,46.27
2018-08-23T08:51:20.944Z,46.87
2018-08-23T08:53:50.213Z,44.53
2018-08-23T08:56:59.003Z,43.43
2018-08-23T08:59:31.078Z,41.40
2018-08-23T09:02:01.138Z,39.23
2018-08-23T09:04:36.126Z,36.87
2018-08-23T09:07:05.648Z,39.50
2018-08-23T09:09:39.429Z,40.73
2018-08-23T09:12:11.108Z,42.63
2018-08-23T09:14:42.128Z,36.40
2018-08-23T09:17:27.988Z,42.57
2018-08-23T09:20:02.219Z,38.33
2018-08-23T09:22:36.658Z,38.47
2018-08-23T09:25:08.415Z,44.30
2018-08-23T09:27:37.902Z,41.60
2018-08-23T09:30:13.086Z,43.13
2018-08-23T09:32:42.613Z,37.43
2018-08-23T09:35:12.310Z,35.50
2018-08-23T09:37:42.002Z,38.10
2018-08-23T09:40:11.363Z,36.83
2018-08-23T09:42:40.643Z,32.97
2018-08-23T09:45:13.304Z,34.53
2018-08-23T09:47:43.180Z,30.97
2018-08-23T09:50:12.719Z,35.53
2018-08-23T09:52:44.227Z,29.33
2018-08-23T09:55:15.814Z,27.83
2018-08-23T09:57:45.871Z,22.00
2018-08-23T10:00:19.543Z,24.53
2018-08-23T10:04:59.931Z,16.37
2018-08-23T10:07:34.479Z,15.07
2018-08-23T10:10:09.308Z,15.20
2018-08-23T10:12:43.887Z,13.90
2018-08-23T10:15:18.665Z,13.90
2018-08-23T10:17:53.463Z,12.53
2018-08-23T10:20:28.006Z,11.70
2018-08-23T10:23:16.071Z,10.07
2018-08-23T10:25:47.659Z,10.00
2018-08-23T10:28:18.853Z,11.20
2018-08-23T10:30:48.857Z,9.80
2018-08-23T10:33:18.710Z,11.23
2018-08-23T10:35:52.399Z,12.33
2018-08-23T10:38:23.440Z,9.30
2018-08-23T10:40:54.559Z,7.27
2018-08-23T10:43:29.380Z,7.87
2018-08-23T10:46:02.931Z,6.90
2018-08-23T10:48:32.526Z,6.55
2018-08-23T10:51:02.089Z,6.67
2018-08-23T10:53:32.725Z,7.00
2018-08-23T10:56:02.023Z,9.60
2018-08-23T10:58:31.527Z,6.10
2018-08-23T11:01:01.246Z,5.67
2018-08-23T11:03:30.906Z,6.90
2018-08-23T11:06:00.467Z,5.27
2018-08-23T11:08:36.089Z,5.93
2018-08-23T11:11:10.894Z,6.17
2018-08-23T11:13:48.156Z,12.67
2018-08-23T11:16:23.791Z,5.67
2018-08-23T11:18:58.575Z,7.37
2018-08-23T11:21:27.811Z,5.70
2018-08-23T11:23:57.290Z,5.37
2018-08-23T11:26:26.788Z,4.77
2018-08-23T11:28:56.112Z,6.03
2018-08-23T11:31:29.919Z,4.30
2018-08-23T11:34:00.007Z,4.43
2018-08-23T11:36:29.507Z,4.43
2018-08-23T11:38:58.745Z,3.70
2018-08-23T11:41:28.115Z,3.80
2018-08-23T11:43:57.730Z,4.07
2018-08-23T11:46:27.813Z,3.73
2018-08-23T11:48:57.323Z,4.10
2018-08-23T11:51:26.781Z,4.25
2018-08-23T11:53:56.065Z,4.00
2018-08-23T11:56:25.370Z,4.00
2018-08-23T11:58:55.085Z,3.80
2018-08-23T12:01:24.550Z,4.45
2018-08-23T12:03:53.910Z,3.87
2018-08-23T12:06:23.410Z,4.03
2018-08-23T12:08:52.855Z,4.33
2018-08-23T12:11:22.191Z,4.30
2018-08-23T12:13:52.130Z,5.07
2018-08-23T12:16:21.819Z,4.47
2018-08-23T12:18:51.321Z,4.13
2018-08-23T12:21:21.111Z,4.50
2018-08-23T12:23:50.521Z,4.93
2018-08-23T12:26:20.165Z,4.30
2018-08-23T12:28:54.693Z,3.87
2018-08-23T12:31:24.428Z,3.93
2018-08-23T12:33:53.937Z,3.83
2018-08-23T12:36:28.828Z,3.53
2018-08-23T12:39:03.294Z,3.70
2018-08-23T12:41:38.926Z,3.60
2018-08-23T12:44:09.072Z,3.80
2018-08-23T12:46:38.447Z,4.30
2018-08-23T12:49:07.761Z,4.03
2018-08-23T12:51:37.194Z,3.37
2018-08-23T12:54:07.193Z,3.57
2018-08-23T12:56:36.619Z,3.70
2018-08-23T12:59:07.301Z,3.37
2018-08-23T13:01:37.232Z,3.43
2018-08-23T13:04:06.913Z,5.93
2018-08-23T13:06:36.458Z,24.17
2018-08-23T13:09:06.804Z,3.30
2018-08-23T13:11:36.319Z,4.13
2018-08-23T13:14:05.827Z,3.30
2018-08-23T13:16:35.291Z,3.23
2018-08-23T13:19:04.851Z,3.30
2018-08-23T13:21:34.109Z,3.93
2018-08-23T13:24:03.907Z,3.67
2018-08-23T13:26:38.941Z,3.40
2018-08-23T13:29:08.359Z,4.43
2018-08-23T13:31:37.892Z,5.40
2018-08-23T13:34:07.454Z,3.57
2018-08-23T13:36:37.373Z,3.83
2018-08-23T13:39:10.482Z,3.77
2018-08-23T13:41:40.200Z,13.80
2018-08-23T13:44:09.766Z,6.53
2018-08-23T13:46:40.050Z,3.90
2018-08-23T13:49:09.513Z,3.70
2018-08-23T13:51:39.210Z,3.60
2018-08-23T13:54:08.455Z,3.87
2018-08-23T13:56:37.854Z,4.00
2018-08-23T13:59:07.755Z,4.00
2018-08-23T14:01:37.058Z,3.70
2018-08-23T14:04:06.960Z,3.70
2018-08-23T14:06:36.478Z,4.50
2018-08-23T14:09:06.898Z,9.73
2018-08-23T14:11:36.318Z,6.63
2018-08-23T14:14:05.863Z,4.80
2018-08-23T14:16:35.350Z,4.83
2018-08-23T14:19:05.232Z,10.63
2018-08-23T14:21:34.747Z,5.87
2018-08-23T14:24:04.238Z,4.73
2018-08-23T14:26:33.780Z,5.23
2018-08-23T14:29:03.276Z,8.30
2018-08-23T14:31:32.763Z,6.10
2018-08-23T14:34:02.263Z,5.90
2018-08-23T14:36:32.250Z,5.90
2018-08-23T14:39:01.651Z,5.57
2018-08-23T14:41:31.200Z,5.40
2018-08-23T14:44:00.686Z,6.10
2018-08-23T14:46:36.096Z,11.20
2018-08-23T14:49:05.636Z,10.60
2018-08-23T14:51:34.971Z,6.93
2018-08-23T14:54:08.634Z,6.50
2018-08-23T14:56:43.285Z,6.23
2018-08-23T14:59:13.090Z,6.53
2018-08-23T15:01:42.575Z,6.43
2018-08-23T15:04:12.097Z,6.50
2018-08-23T15:06:41.588Z,6.47
2018-08-23T15:09:11.616Z,6.20
2018-08-23T15:11:40.972Z,9.30
2018-08-23T15:14:10.595Z,7.17
2018-08-23T15:16:40.077Z,7.20
2018-08-23T15:19:09.532Z,8.27
2018-08-23T15:21:39.051Z,6.93
2018-08-23T15:24:08.779Z,6.80
2018-08-23T15:26:38.398Z,6.90
2018-08-23T15:29:12.192Z,6.20
2018-08-23T15:31:43.372Z,7.43
2018-08-23T15:34:13.149Z,6.37
2018-08-23T15:36:42.522Z,7.80
2018-08-23T15:39:14.203Z,6.97
2018-08-23T15:41:43.982Z,6.60
2018-08-23T15:44:14.238Z,7.73
2018-08-23T15:46:46.547Z,6.90
2018-08-23T15:49:16.727Z,7.63
2018-08-23T15:51:46.638Z,7.30
2018-08-23T15:54:18.236Z,7.53
2018-08-23T15:56:48.119Z,9.37
2018-08-23T15:59:17.810Z,8.67
2018-08-23T16:01:47.103Z,8.50
2018-08-23T16:04:16.619Z,7.60
2018-08-23T16:06:46.085Z,7.63
2018-08-23T16:09:15.626Z,8.17
2018-08-23T16:11:45.312Z,7.33
2018-08-23T16:14:14.798Z,7.27
2018-08-23T16:16:49.615Z,7.97
2018-08-23T16:19:24.419Z,7.43
2018-08-23T16:21:55.656Z,7.37
2018-08-23T16:24:26.758Z,7.13
2018-08-23T16:27:01.264Z,7.20
2018-08-23T16:29:30.716Z,55.63
2018-08-23T16:32:00.253Z,32.77
2018-08-23T16:34:30.058Z,18.27
2018-08-23T16:36:59.265Z,8.90
2018-08-23T16:39:28.723Z,8.10
2018-08-23T16:41:58.226Z,7.30
2018-08-23T16:44:28.147Z,7.03
2018-08-23T16:46:57.650Z,7.03
2018-08-23T16:49:27.564Z,7.37
2018-08-23T16:51:57.035Z,7.70
2018-08-23T16:54:26.854Z,7.37
2018-08-23T16:56:56.051Z,7.93
2018-08-23T16:59:25.435Z,9.67
2018-08-23T17:01:54.695Z,7.43
2018-08-23T17:04:54.883Z,7.23
2018-08-23T17:07:24.582Z,7.13
2018-08-23T17:09:53.898Z,6.90
2018-08-23T17:12:23.134Z,15.43
2018-08-23T17:14:52.480Z,32.03
2018-08-23T17:17:29.124Z,7.63
2018-08-23T17:19:58.439Z,6.37
2018-08-23T17:22:29.159Z,7.00
2018-08-23T17:24:59.000Z,7.33
2018-08-23T17:27:29.622Z,6.70
2018-08-23T17:29:58.987Z,7.63
2018-08-23T17:32:28.420Z,7.50
2018-08-23T17:34:57.763Z,8.50
2018-08-23T17:37:27.246Z,8.57
2018-08-23T17:39:57.035Z,10.17
2018-08-23T17:42:31.487Z,8.77
2018-08-23T17:45:00.963Z,9.00
2018-08-23T17:47:30.985Z,9.47
2018-08-23T17:50:00.944Z,9.97
2018-08-23T17:52:30.449Z,10.67
2018-08-23T17:54:59.975Z,9.13
2018-08-23T17:57:29.844Z,10.27
2018-08-23T17:59:59.369Z,8.60
2018-08-23T18:02:28.887Z,17.30
2018-08-23T18:04:58.343Z,69.70
2018-08-23T18:07:27.889Z,26.03
2018-08-23T18:09:57.342Z,7.93
2018-08-23T18:12:26.881Z,7.70
2018-08-23T18:14:56.221Z,8.03
2018-08-23T18:17:25.681Z,7.67
2018-08-23T18:19:54.902Z,7.37
2018-08-23T18:22:24.295Z,7.87
2018-08-23T18:24:53.778Z,7.87
2018-08-23T18:27:23.291Z,8.23
2018-08-23T18:29:52.829Z,7.87
2018-08-23T18:32:22.360Z,8.27
2018-08-23T18:34:51.787Z,6.90
2018-08-23T18:37:21.383Z,7.63
2018-08-23T18:39:50.793Z,7.70
2018-08-23T18:42:20.330Z,7.73
2018-08-23T18:44:49.611Z,7.20
2018-08-23T18:47:19.122Z,7.23
2018-08-23T18:49:48.666Z,6.93
2018-08-23T18:52:17.871Z,7.30
2018-08-23T18:54:47.438Z,6.23
2018-08-23T18:57:17.139Z,6.20
2018-08-23T18:59:46.662Z,6.53
2018-08-23T19:02:16.947Z,5.97
2018-08-23T19:04:46.466Z,6.03
2018-08-23T19:07:21.286Z,10.77
2018-08-23T19:09:54.818Z,8.77
2018-08-23T19:12:24.603Z,6.20
2018-08-23T19:14:53.919Z,6.13
2018-08-23T19:17:28.599Z,8.53
2018-08-23T19:19:58.123Z,7.63
2018-08-23T19:22:27.548Z,6.97
2018-08-23T19:24:57.146Z,9.30
2018-08-23T19:27:27.225Z,7.03
2018-08-23T19:29:56.694Z,12.17
2018-08-23T19:32:26.174Z,7.23
2018-08-23T19:34:55.707Z,8.10
2018-08-23T19:37:25.662Z,7.37
2018-08-23T19:39:55.328Z,7.00
2018-08-23T19:42:25.023Z,7.60
2018-08-23T19:44:57.275Z,6.37
2018-08-23T19:47:31.926Z,11.90
2018-08-23T19:50:03.054Z,9.50
2018-08-23T19:52:33.252Z,13.77
2018-08-23T19:55:02.580Z,13.27
2018-08-23T19:57:31.868Z,10.60
2018-08-23T20:00:01.423Z,9.23
2018-08-23T20:02:30.867Z,8.27
2018-08-23T20:05:00.603Z,7.83
2018-08-23T20:07:30.147Z,6.97
2018-08-23T20:09:59.966Z,7.50
2018-08-23T20:12:29.873Z,6.63
2018-08-23T20:14:59.635Z,7.93
2018-08-23T20:17:29.188Z,7.33
2018-08-23T20:19:58.830Z,7.23
2018-08-23T20:22:28.363Z,9.90
2018-08-23T20:24:57.615Z,15.00
2018-08-23T20:27:26.978Z,9.73
2018-08-23T20:29:56.462Z,12.70
2018-08-23T20:32:26.021Z,8.10
2018-08-23T20:34:55.466Z,17.07
2018-08-23T20:37:24.985Z,14.03
2018-08-23T20:39:54.496Z,10.43
2018-08-23T20:42:23.811Z,5.73
2018-08-23T20:44:53.291Z,9.50
2018-08-23T20:47:23.282Z,6.67
2018-08-23T20:49:52.557Z,7.10
2018-08-23T20:52:22.024Z,8.37
2018-08-23T20:54:51.517Z,7.03
2018-08-23T20:57:21.002Z,6.40
2018-08-23T20:59:50.232Z,5.77
2018-08-23T21:02:20.517Z,5.70
2018-08-23T21:04:50.168Z,5.30
2018-08-23T21:07:19.666Z,4.90
2018-08-23T21:09:49.644Z,4.80
2018-08-23T21:12:18.912Z,6.57
2018-08-23T21:14:48.636Z,5.90
2018-08-23T21:17:18.070Z,5.03
2018-08-23T21:19:47.403Z,6.40
2018-08-23T21:22:17.071Z,5.00
2018-08-23T21:24:46.418Z,4.90
2018-08-23T21:27:15.936Z,4.50
2018-08-23T21:29:45.396Z,4.83
2018-08-23T21:32:14.940Z,4.57
2018-08-23T21:34:44.405Z,4.03
2018-08-23T21:37:14.394Z,3.97
2018-08-23T21:39:43.827Z,7.60
2018-08-23T21:42:13.347Z,7.27
2018-08-23T21:44:42.839Z,5.80
2018-08-23T21:47:12.342Z,5.30
2018-08-23T21:49:41.862Z,3.97
2018-08-23T21:52:11.365Z,4.17
2018-08-23T21:54:40.866Z,5.40
2018-08-23T21:57:10.175Z,6.60
2018-08-23T21:59:39.652Z,4.33
2018-08-23T22:02:13.943Z,5.50
2018-08-23T22:04:48.471Z,4.67
2018-08-23T22:07:17.899Z,4.03
2018-08-23T22:09:52.898Z,3.80
2018-08-23T22:12:24.116Z,3.57
2018-08-23T22:14:54.762Z,3.30
2018-08-23T22:17:24.690Z,3.77
2018-08-23T22:19:54.346Z,4.10
2018-08-23T22:22:23.910Z,4.23
2018-08-23T22:24:53.611Z,3.70
2018-08-23T22:27:23.175Z,3.90
2018-08-23T22:29:52.870Z,3.83
2018-08-23T22:32:22.278Z,4.00
2018-08-23T22:34:51.955Z,3.40
2018-08-23T22:37:21.474Z,3.97
2018-08-23T22:39:50.787Z,3.80
2018-08-23T22:42:20.327Z,3.50
2018-08-23T22:44:49.812Z,3.43
2018-08-23T22:47:19.314Z,3.30
2018-08-23T22:49:48.605Z,9.30
2018-08-23T22:52:17.798Z,9.30
2018-08-23T22:54:47.391Z,3.70
2018-08-23T22:57:16.902Z,5.73
2018-08-23T22:59:46.430Z,7.80
2018-08-23T23:02:21.083Z,8.97
2018-08-23T23:04:50.344Z,4.70
2018-08-23T23:07:19.821Z,3.60
2018-08-23T23:09:49.171Z,3.60
2018-08-23T23:12:18.666Z,4.10
2018-08-23T23:14:48.157Z,3.73
2018-08-23T23:17:17.643Z,3.90
2018-08-23T23:19:47.010Z,4.50
2018-08-23T23:22:16.987Z,4.10
2018-08-23T23:24:51.550Z,4.00
2018-08-23T23:27:21.008Z,7.33
2018-08-23T23:29:50.489Z,5.37
2018-08-23T23:32:20.002Z,3.90
2018-08-23T23:34:49.503Z,3.87
2018-08-23T23:37:18.820Z,4.47
2018-08-23T23:39:48.295Z,3.63
2018-08-23T23:42:17.638Z,4.43
2018-08-23T23:44:47.734Z,3.73
2018-08-23T23:47:17.242Z,4.00
2018-08-23T23:49:46.783Z,3.77
2018-08-23T23:52:16.272Z,3.80
2018-08-23T23:54:45.759Z,4.30
2018-08-23T23:57:15.748Z,3.30
2018-08-23T23:59:45.193Z,3.40
